createdAt,value
2022-11-01T00:02:08.699Z,69.00
2022-11-01T00:04:35.346Z,60.50
2022-11-01T00:07:02.199Z,65.60
2022-11-01T00:09:28.847Z,66.30
2022-11-01T00:11:55.382Z,67.50
2022-11-01T00:14:22.027Z,66.70
2022-11-01T00:16:49.174Z,62.30
2022-11-01T00:19:15.815Z,67.30
2022-11-01T00:21:42.561Z,62.40
2022-11-01T00:24:09.062Z,69.20
2022-11-01T00:26:35.837Z,71.30
2022-11-01T00:29:02.711Z,65.20
2022-11-01T00:31:29.240Z,68.80
2022-11-01T00:33:55.874Z,64.30
2022-11-01T00:36:22.301Z,61.30
2022-11-01T00:38:52.717Z,57.10
2022-11-01T00:41:19.939Z,66.00
2022-11-01T00:43:46.441Z,59.20
2022-11-01T00:46:13.102Z,59.70
2022-11-01T00:48:39.927Z,57.90
2022-11-01T00:51:06.777Z,55.70
2022-11-01T00:53:33.516Z,59.00
2022-11-01T00:56:01.947Z,56.30
2022-11-01T00:58:28.615Z,53.60
2022-11-01T01:00:55.464Z,51.70
2022-11-01T01:03:22.854Z,57.60
2022-11-01T01:05:51.339Z,55.90
2022-11-01T01:08:17.985Z,57.60
2022-11-01T01:10:45.338Z,55.90
2022-11-01T01:13:12.293Z,53.50
2022-11-01T01:15:39.854Z,52.80
2022-11-01T01:18:07.268Z,52.80
2022-11-01T01:20:34.060Z,56.00
2022-11-01T01:23:00.691Z,54.20
2022-11-01T01:25:28.062Z,53.70
2022-11-01T01:27:55.943Z,51.90
2022-11-01T01:30:22.473Z,53.50
2022-11-01T01:32:48.935Z,51.30
2022-11-01T01:35:15.390Z,50.90
2022-11-01T01:37:41.859Z,50.70
2022-11-01T01:40:09.045Z,49.90
2022-11-01T01:42:40.906Z,46.10
2022-11-01T01:45:28.744Z,44.80
2022-11-01T01:48:03.372Z,46.20
2022-11-01T01:50:39.744Z,45.30
2022-11-01T01:53:12.428Z,47.40
2022-11-01T01:55:48.953Z,45.10
2022-11-01T01:58:19.556Z,43.80
2022-11-01T02:00:46.246Z,47.00
2022-11-01T02:03:14.082Z,46.30
2022-11-01T02:06:02.832Z,53.70
2022-11-01T02:08:30.370Z,48.20
2022-11-01T02:11:00.920Z,44.50
2022-11-01T02:13:28.785Z,32.70
2022-11-01T02:16:07.399Z,45.50
2022-11-01T02:18:44.078Z,44.00
2022-11-01T02:21:42.581Z,43.20
2022-11-01T02:24:35.267Z,37.30
2022-11-01T02:27:11.735Z,47.10
2022-11-01T02:30:08.951Z,43.10
2022-11-01T02:33:00.091Z,36.60
2022-11-01T02:35:48.110Z,40.80
2022-11-01T02:38:24.892Z,41.10
2022-11-01T02:41:23.300Z,38.70
2022-11-01T02:44:12.810Z,36.80
2022-11-01T02:46:41.375Z,37.60
2022-11-01T02:49:12.099Z,44.30
2022-11-01T02:51:39.040Z,39.30
2022-11-01T02:54:07.239Z,40.40
2022-11-01T02:56:35.211Z,40.80
2022-11-01T02:59:02.072Z,44.10
2022-11-01T03:01:31.822Z,39.10
2022-11-01T03:04:00.437Z,38.30
2022-11-01T03:06:32.810Z,43.50
2022-11-01T03:09:11.647Z,37.70
2022-11-01T03:12:01.221Z,45.90
2022-11-01T03:14:39.125Z,41.20
2022-11-01T03:17:15.117Z,38.80
2022-11-01T03:19:48.592Z,40.70
2022-11-01T03:22:29.264Z,40.20
2022-11-01T03:25:16.518Z,38.90
2022-11-01T03:27:46.604Z,38.40
2022-11-01T03:30:14.940Z,41.10
2022-11-01T03:32:46.868Z,42.00
2022-11-01T03:35:22.627Z,42.80
2022-11-01T03:37:52.837Z,43.80
2022-11-01T03:40:23.378Z,41.10
2022-11-01T03:42:53.650Z,34.90
2022-11-01T03:45:25.093Z,37.10
2022-11-01T03:50:21.872Z,38.90
2022-11-01T03:52:48.994Z,37.90
2022-11-01T03:55:17.592Z,40.10
2022-11-01T03:57:52.241Z,41.30
2022-11-01T04:00:27.373Z,39.90
2022-11-01T04:02:58.400Z,36.90
2022-11-01T04:05:27.323Z,35.50
2022-11-01T04:07:53.785Z,35.20
2022-11-01T04:10:22.278Z,35.80
2022-11-01T04:12:50.202Z,37.30
2022-11-01T04:15:18.383Z,42.20
2022-11-01T04:17:44.902Z,38.20
2022-11-01T04:20:11.465Z,34.40
2022-11-01T04:22:38.826Z,41.00
2022-11-01T04:25:05.571Z,35.90
2022-11-01T04:27:31.981Z,33.50
2022-11-01T04:29:58.455Z,30.80
2022-11-01T04:32:25.031Z,34.00
2022-11-01T04:34:51.546Z,35.90
2022-11-01T04:37:18.083Z,30.50
2022-11-01T04:39:44.516Z,33.00
2022-11-01T04:42:10.957Z,31.80
2022-11-01T04:44:37.503Z,32.60
2022-11-01T04:47:04.041Z,34.30
2022-11-01T04:49:30.479Z,35.80
2022-11-01T04:51:57.018Z,34.40
2022-11-01T04:54:23.570Z,33.10
2022-11-01T04:56:50.114Z,31.40
2022-11-01T04:59:16.533Z,33.60
2022-11-01T05:01:43.131Z,30.00
2022-11-01T05:04:09.730Z,31.90
2022-11-01T05:06:36.277Z,30.10
2022-11-01T05:09:03.017Z,26.80
2022-11-01T05:11:29.454Z,28.20
2022-11-01T05:13:56.094Z,29.90
2022-11-01T05:16:22.838Z,26.70
2022-11-01T05:18:49.388Z,30.20
2022-11-01T05:21:15.930Z,27.90
2022-11-01T05:23:42.480Z,25.30
2022-11-01T05:26:09.005Z,31.20
2022-11-01T05:28:35.593Z,35.40
2022-11-01T05:31:02.062Z,32.20
2022-11-01T05:33:28.641Z,26.10
2022-11-01T05:35:55.284Z,32.30
2022-11-01T05:38:21.955Z,27.50
2022-11-01T05:40:48.397Z,34.60
2022-11-01T05:43:15.101Z,26.80
2022-11-01T05:45:42.156Z,30.40
2022-11-01T05:48:08.694Z,32.40
2022-11-01T05:50:35.231Z,29.90
2022-11-01T05:53:09.026Z,28.20
2022-11-01T05:55:36.539Z,26.60
2022-11-01T05:58:03.430Z,27.00
2022-11-01T06:00:29.999Z,25.60
2022-11-01T06:03:00.624Z,27.50
2022-11-01T06:05:27.898Z,31.10
2022-11-01T06:07:54.646Z,31.60
2022-11-01T06:10:21.185Z,32.50
2022-11-01T06:12:47.730Z,38.60
2022-11-01T06:15:14.192Z,42.30
2022-11-01T06:17:40.709Z,41.70
2022-11-01T06:20:07.831Z,30.50
2022-11-01T06:22:37.150Z,35.80
2022-11-01T06:25:04.963Z,29.90
2022-11-01T06:27:32.214Z,32.30
2022-11-01T06:29:58.846Z,25.60
2022-11-01T06:32:25.288Z,25.10
2022-11-01T06:34:51.701Z,18.80
2022-11-01T06:37:18.264Z,19.80
2022-11-01T06:39:44.806Z,20.30
2022-11-01T06:42:11.245Z,14.40
2022-11-01T06:44:37.884Z,18.80
2022-11-01T06:47:04.329Z,18.30
2022-11-01T06:49:30.759Z,15.70
2022-11-01T06:51:57.606Z,14.80
2022-11-01T06:54:24.153Z,15.90
2022-11-01T06:56:50.571Z,13.40
2022-11-01T06:59:17.125Z,15.80
2022-11-01T07:01:44.630Z,16.70
2022-11-01T07:06:42.691Z,16.10
2022-11-01T07:09:09.358Z,16.00
2022-11-01T07:11:35.974Z,14.40
2022-11-01T07:14:03.027Z,14.80
2022-11-01T07:16:29.806Z,12.80
2022-11-01T07:18:56.239Z,12.70
2022-11-01T07:21:23.373Z,20.70
2022-11-01T07:23:50.019Z,11.00
2022-11-01T07:26:16.754Z,12.80
2022-11-01T07:28:43.311Z,11.50
2022-11-01T07:31:09.963Z,15.10
2022-11-01T07:33:36.550Z,12.10
2022-11-01T07:36:04.290Z,13.20
2022-11-01T07:38:31.314Z,13.50
2022-11-01T07:40:57.852Z,13.60
2022-11-01T07:43:24.401Z,13.90
2022-11-01T07:45:50.936Z,14.80
2022-11-01T07:48:19.227Z,11.40
2022-11-01T07:50:46.477Z,10.40
2022-11-01T07:53:16.244Z,11.80
2022-11-01T07:55:43.444Z,13.00
2022-11-01T07:58:10.799Z,12.20
2022-11-01T08:00:38.981Z,13.30
2022-11-01T08:03:14.372Z,9.60
2022-11-01T08:05:41.565Z,10.50
2022-11-01T08:08:08.639Z,12.00
2022-11-01T08:10:36.819Z,12.40
2022-11-01T08:13:23.018Z,10.90
2022-11-01T08:15:51.195Z,13.20
2022-11-01T08:18:19.287Z,13.10
2022-11-01T08:20:45.858Z,14.20
2022-11-01T08:23:12.599Z,11.40
2022-11-01T08:25:40.020Z,10.40
2022-11-01T08:28:12.671Z,9.70
2022-11-01T08:30:42.036Z,9.60
2022-11-01T08:33:08.743Z,10.70
2022-11-01T08:35:35.622Z,11.40
2022-11-01T08:38:02.152Z,9.20
2022-11-01T08:40:29.432Z,10.80
2022-11-01T08:42:56.446Z,9.20
2022-11-01T08:45:23.820Z,13.20
2022-11-01T08:47:58.909Z,10.90
2022-11-01T08:50:25.611Z,10.30
2022-11-01T08:52:52.092Z,10.40
2022-11-01T08:55:18.901Z,7.20
2022-11-01T08:57:45.380Z,10.70
2022-11-01T09:00:12.909Z,10.30
2022-11-01T09:02:39.964Z,9.10
2022-11-01T09:05:06.709Z,8.60
2022-11-01T09:07:37.760Z,6.20
2022-11-01T09:10:05.573Z,6.10
2022-11-01T09:12:32.125Z,8.70
2022-11-01T09:14:58.733Z,5.40
2022-11-01T09:17:25.181Z,7.10
2022-11-01T09:19:51.600Z,6.50
2022-11-01T09:22:18.227Z,5.60
2022-11-01T09:24:44.686Z,6.90
2022-11-01T09:27:11.310Z,7.80
2022-11-01T09:29:38.367Z,7.90
2022-11-01T09:32:05.343Z,6.80
2022-11-01T09:34:31.767Z,6.30
2022-11-01T09:36:58.287Z,7.00
2022-11-01T09:39:24.803Z,6.90
2022-11-01T09:41:57.099Z,10.60
2022-11-01T09:44:27.974Z,6.40
2022-11-01T09:47:23.262Z,10.00
2022-11-01T09:49:57.688Z,5.90
2022-11-01T09:52:25.455Z,6.50
2022-11-01T09:54:52.404Z,6.00
2022-11-01T09:57:39.080Z,7.70
2022-11-01T10:00:07.820Z,6.00
2022-11-01T10:02:47.157Z,6.60
2022-11-01T10:05:36.631Z,7.30
2022-11-01T10:08:27.140Z,5.80
2022-11-01T10:11:12.830Z,4.30
2022-11-01T10:13:54.551Z,7.60
2022-11-01T10:16:36.327Z,7.00
2022-11-01T10:19:09.622Z,5.80
2022-11-01T10:21:46.723Z,5.20
2022-11-01T10:24:26.360Z,5.40
2022-11-01T10:26:59.700Z,9.50
2022-11-01T10:29:49.962Z,7.30
2022-11-01T10:32:53.469Z,7.50
2022-11-01T10:35:28.837Z,7.60
2022-11-01T10:38:26.546Z,7.60
2022-11-01T10:41:06.848Z,7.80
2022-11-01T10:43:38.215Z,8.90
2022-11-01T10:46:08.774Z,7.30
2022-11-01T10:48:46.236Z,8.00
2022-11-01T10:51:17.318Z,6.10
2022-11-01T10:53:48.663Z,7.10
2022-11-01T10:56:23.006Z,7.10
2022-11-01T10:59:01.093Z,6.30
2022-11-01T11:01:31.894Z,6.30
2022-11-01T11:04:02.903Z,9.20
2022-11-01T11:06:37.490Z,6.50
2022-11-01T11:09:05.464Z,7.30
2022-11-01T11:11:39.413Z,5.70
2022-11-01T11:14:08.416Z,7.30
2022-11-01T11:16:44.148Z,9.20
2022-11-01T11:19:21.960Z,4.90
2022-11-01T11:21:51.463Z,7.20
2022-11-01T11:24:26.120Z,7.50
2022-11-01T11:26:56.148Z,10.80
2022-11-01T11:29:46.271Z,7.60
2022-11-01T11:32:23.766Z,6.60
2022-11-01T11:35:02.942Z,6.80
2022-11-01T11:37:33.335Z,7.80
2022-11-01T11:40:01.047Z,9.20
2022-11-01T11:42:27.788Z,7.10
2022-11-01T11:44:56.629Z,10.50
2022-11-01T11:47:34.691Z,6.70
2022-11-01T11:50:23.195Z,8.10
2022-11-01T11:52:56.388Z,7.60
2022-11-01T11:55:27.602Z,6.80
2022-11-01T11:57:56.081Z,9.00
2022-11-01T12:00:26.614Z,9.50
2022-11-01T12:02:53.591Z,7.30
2022-11-01T12:05:22.357Z,5.90
2022-11-01T12:07:52.081Z,9.20
2022-11-01T12:10:32.951Z,5.00
2022-11-01T12:13:05.103Z,7.30
2022-11-01T12:15:37.003Z,7.80
2022-11-01T12:18:16.263Z,7.50
2022-11-01T12:20:48.492Z,6.40
2022-11-01T12:23:22.813Z,6.70
2022-11-01T12:25:50.311Z,5.20
2022-11-01T12:28:30.733Z,4.60
2022-11-01T12:31:04.278Z,6.20
2022-11-01T12:33:34.991Z,5.10
2022-11-01T12:36:01.624Z,6.30
2022-11-01T12:38:49.604Z,7.30
2022-11-01T12:41:28.289Z,6.10
2022-11-01T12:44:16.701Z,8.20
2022-11-01T12:46:53.242Z,12.20
2022-11-01T12:49:32.562Z,8.40
2022-11-01T12:52:17.936Z,8.60
2022-11-01T12:55:16.556Z,6.70
2022-11-01T12:57:46.549Z,6.40
2022-11-01T13:00:15.690Z,9.10
2022-11-01T13:03:03.857Z,7.20
2022-11-01T13:06:11.121Z,7.80
2022-11-01T13:08:55.239Z,10.50
2022-11-01T13:11:32.258Z,9.10
2022-11-01T13:14:37.879Z,7.00
2022-11-01T13:17:38.620Z,6.50
2022-11-01T13:20:26.872Z,8.90
2022-11-01T13:23:13.559Z,9.20
2022-11-01T13:25:53.333Z,9.80
2022-11-01T13:28:42.505Z,8.80
2022-11-01T13:31:19.364Z,11.70
2022-11-01T13:34:11.121Z,9.80
2022-11-01T13:36:47.828Z,8.40
2022-11-01T13:39:20.380Z,9.60
2022-11-01T13:41:55.691Z,13.00
2022-11-01T13:44:27.004Z,9.40
2022-11-01T13:47:17.784Z,7.10
2022-11-01T13:50:09.312Z,8.70
2022-11-01T13:52:45.169Z,8.70
2022-11-01T13:55:33.966Z,6.90
2022-11-01T13:58:00.991Z,7.70
2022-11-01T14:00:39.602Z,6.60
2022-11-01T14:03:26.628Z,6.80
2022-11-01T14:06:12.823Z,9.10
2022-11-01T14:08:40.540Z,7.70
2022-11-01T14:11:10.665Z,7.70
2022-11-01T14:13:43.146Z,5.40
2022-11-01T14:16:15.596Z,7.90
2022-11-01T14:19:02.390Z,8.00
2022-11-01T14:21:41.536Z,9.80
2022-11-01T14:24:21.685Z,9.60
2022-11-01T14:26:59.589Z,8.50
2022-11-01T14:29:26.139Z,8.00
2022-11-01T14:31:54.624Z,8.70
2022-11-01T14:34:25.354Z,9.30
2022-11-01T14:36:56.598Z,8.70
2022-11-01T14:39:44.027Z,10.80
2022-11-01T14:42:15.311Z,12.40
2022-11-01T14:44:49.587Z,12.60
2022-11-01T14:47:28.013Z,13.40
2022-11-01T14:49:58.984Z,11.00
2022-11-01T14:52:38.913Z,9.40
2022-11-01T14:55:22.047Z,8.60
2022-11-01T14:58:06.228Z,14.00
2022-11-01T15:00:32.938Z,18.90
2022-11-01T15:03:01.551Z,35.90
2022-11-01T15:05:28.371Z,20.30
2022-11-01T15:07:57.910Z,14.20
2022-11-01T15:10:24.836Z,13.10
2022-11-01T15:12:56.084Z,12.20
2022-11-01T15:17:57.197Z,8.80
2022-11-01T15:20:26.468Z,8.50
2022-11-01T15:22:55.894Z,12.20
2022-11-01T15:25:25.742Z,13.30
2022-11-01T15:27:54.037Z,13.60
2022-11-01T15:30:32.791Z,12.70
2022-11-01T15:33:22.183Z,14.50
2022-11-01T15:35:57.245Z,12.90
2022-11-01T15:38:23.852Z,16.30
2022-11-01T15:40:50.473Z,13.70
2022-11-01T15:43:25.539Z,17.50
2022-11-01T15:45:56.278Z,18.20
2022-11-01T15:48:27.384Z,13.50
2022-11-01T15:53:26.255Z,16.20
2022-11-01T15:56:00.463Z,20.60
2022-11-01T15:58:32.122Z,18.10
2022-11-01T16:01:04.303Z,13.00
2022-11-01T16:03:37.324Z,15.20
2022-11-01T16:06:21.305Z,14.80
2022-11-01T16:08:55.467Z,21.60
2022-11-01T16:11:25.311Z,20.70
2022-11-01T16:13:59.334Z,16.00
2022-11-01T16:16:26.026Z,19.30
2022-11-01T16:18:52.775Z,22.80
2022-11-01T16:21:19.161Z,20.90
2022-11-01T16:24:11.696Z,22.30
2022-11-01T16:27:25.512Z,19.10
2022-11-01T16:29:52.235Z,19.10
2022-11-01T16:32:20.130Z,18.70
2022-11-01T16:34:47.104Z,16.70
2022-11-01T16:37:24.473Z,18.40
2022-11-01T16:39:51.942Z,16.30
2022-11-01T16:42:19.805Z,17.70
2022-11-01T16:44:50.164Z,19.70
2022-11-01T16:47:16.984Z,21.60
2022-11-01T16:49:53.862Z,20.60
2022-11-01T16:52:21.341Z,22.60
2022-11-01T16:54:49.575Z,22.40
2022-11-01T16:57:22.316Z,20.60
2022-11-01T16:59:49.121Z,25.50
2022-11-01T17:02:19.706Z,22.30
2022-11-01T17:04:49.736Z,25.20
2022-11-01T17:07:16.181Z,23.00
2022-11-01T17:09:42.887Z,28.80
2022-11-01T17:12:09.658Z,28.20
2022-11-01T17:14:36.193Z,29.10
2022-11-01T17:17:05.481Z,28.80
2022-11-01T17:19:33.644Z,28.50
2022-11-01T17:22:03.354Z,26.30
2022-11-01T17:24:30.819Z,28.20
2022-11-01T17:26:59.912Z,30.70
2022-11-01T17:29:26.557Z,31.10
2022-11-01T17:31:54.130Z,45.50
2022-11-01T17:34:20.686Z,78.50
2022-11-01T17:36:49.390Z,81.50
2022-11-01T17:39:16.194Z,88.70
2022-11-01T17:41:42.937Z,103.70
2022-11-01T17:44:12.651Z,91.00
2022-11-01T17:46:39.193Z,99.70
2022-11-01T17:49:05.935Z,118.20
2022-11-01T17:51:32.945Z,153.90
2022-11-01T17:53:59.424Z,90.00
2022-11-01T17:56:25.963Z,72.90
2022-11-01T17:58:52.509Z,65.40
2022-11-01T18:01:20.568Z,71.60
2022-11-01T18:03:48.249Z,75.20
2022-11-01T18:06:14.887Z,82.90
2022-11-01T18:08:47.257Z,106.60
2022-11-01T18:11:39.808Z,101.60
2022-11-01T18:14:15.156Z,98.10
2022-11-01T18:17:00.380Z,71.30
2022-11-01T18:20:04.865Z,72.30
2022-11-01T18:22:49.430Z,60.60
2022-11-01T18:25:42.561Z,52.10
2022-11-01T18:28:19.476Z,83.50
2022-11-01T18:30:52.913Z,143.20
2022-11-01T18:33:19.417Z,97.50
2022-11-01T18:35:54.189Z,95.70
2022-11-01T18:38:31.100Z,138.20
2022-11-01T18:41:02.591Z,122.40
2022-11-01T18:43:33.752Z,99.90
2022-11-01T18:48:59.978Z,152.20
2022-11-01T18:51:29.504Z,114.00
2022-11-01T18:54:08.253Z,98.60
2022-11-01T18:56:39.495Z,101.00
2022-11-01T18:59:33.861Z,90.90
2022-11-01T19:02:13.189Z,102.20
2022-11-01T19:04:41.646Z,96.10
2022-11-01T19:07:22.659Z,100.80
2022-11-01T19:09:55.533Z,94.30
2022-11-01T19:12:46.362Z,91.80
2022-11-01T19:15:25.138Z,80.60
2022-11-01T19:17:57.575Z,193.50
2022-11-01T19:20:28.016Z,165.60
2022-11-01T19:23:11.467Z,177.60
2022-11-01T19:25:38.173Z,156.80
2022-11-01T19:28:17.303Z,150.80
2022-11-01T19:30:49.294Z,127.50
2022-11-01T19:33:34.615Z,118.00
2022-11-01T19:36:05.663Z,116.70
2022-11-01T19:38:32.340Z,122.30
2022-11-01T19:40:59.226Z,118.50
2022-11-01T19:43:27.578Z,127.90
2022-11-01T19:45:56.588Z,113.00
2022-11-01T19:48:27.233Z,104.80
2022-11-01T19:50:55.201Z,98.50
2022-11-01T19:53:33.928Z,94.10
2022-11-01T19:56:03.456Z,94.30
2022-11-01T19:58:50.318Z,99.50
2022-11-01T20:01:17.463Z,87.70
2022-11-01T20:03:56.264Z,97.90
2022-11-01T20:06:29.228Z,94.10
2022-11-01T20:09:01.360Z,100.50
2022-11-01T20:11:27.907Z,97.50
2022-11-01T20:13:54.611Z,98.10
2022-11-01T20:16:21.282Z,96.00
2022-11-01T20:18:47.927Z,88.40
2022-11-01T20:21:14.672Z,90.50
2022-11-01T20:23:41.442Z,84.70
2022-11-01T20:26:08.150Z,93.40
2022-11-01T20:28:34.792Z,97.90
2022-11-01T20:31:01.343Z,87.20
2022-11-01T20:33:27.871Z,95.40
2022-11-01T20:35:54.405Z,101.10
2022-11-01T20:43:19.034Z,102.60
2022-11-01T20:45:45.677Z,94.90
2022-11-01T20:48:12.191Z,89.80
2022-11-01T20:50:39.165Z,91.90
2022-11-01T20:53:06.109Z,107.00
2022-11-01T20:55:32.959Z,103.80
2022-11-01T20:57:59.603Z,93.70
2022-11-01T21:00:26.682Z,94.50
2022-11-01T21:02:55.251Z,100.50
2022-11-01T21:05:23.132Z,102.50
2022-11-01T21:07:53.678Z,107.10
2022-11-01T21:10:34.252Z,102.20
2022-11-01T21:13:03.413Z,104.50
2022-11-01T21:15:40.154Z,101.20
2022-11-01T21:18:09.834Z,91.90
2022-11-01T21:20:39.348Z,102.10
2022-11-01T21:23:21.148Z,95.30
2022-11-01T21:25:53.324Z,88.70
2022-11-01T21:28:35.365Z,90.80
2022-11-01T21:31:29.703Z,92.50
2022-11-01T21:34:00.228Z,93.40
2022-11-01T21:36:28.509Z,86.10
2022-11-01T21:38:58.843Z,80.00
2022-11-01T21:41:38.590Z,81.70
2022-11-01T21:44:17.682Z,82.10
2022-11-01T21:46:50.951Z,84.90
2022-11-01T21:49:25.061Z,79.40
2022-11-01T21:51:53.148Z,86.10
2022-11-01T21:54:20.515Z,79.40
2022-11-01T21:56:47.631Z,83.60
2022-11-01T21:59:14.581Z,77.80
2022-11-01T22:01:44.267Z,75.40
2022-11-01T22:04:11.032Z,74.60
2022-11-01T22:06:37.498Z,77.20
2022-11-01T22:09:04.686Z,71.90
2022-11-01T22:11:32.712Z,60.20
2022-11-01T22:13:59.499Z,63.30
2022-11-01T22:16:26.213Z,62.30
2022-11-01T22:18:52.757Z,61.50
2022-11-01T22:21:19.190Z,60.30
2022-11-01T22:23:45.651Z,67.60
2022-11-01T22:26:12.991Z,64.20
2022-11-01T22:28:39.531Z,62.60
2022-11-01T22:31:06.587Z,63.70
2022-11-01T22:33:34.459Z,67.60
2022-11-01T22:36:01.918Z,67.20
2022-11-01T22:38:38.315Z,64.50
2022-11-01T22:41:17.062Z,64.80
2022-11-01T22:43:47.257Z,64.60
2022-11-01T22:46:40.275Z,77.50
2022-11-01T22:49:30.306Z,64.00
2022-11-01T22:52:21.834Z,69.50
2022-11-01T22:54:52.157Z,74.90
2022-11-01T22:57:22.147Z,72.60
2022-11-01T22:59:55.493Z,69.10
2022-11-01T23:02:30.746Z,67.50
2022-11-01T23:05:06.453Z,67.10
2022-11-01T23:07:40.193Z,63.50
2022-11-01T23:10:22.391Z,59.30
2022-11-01T23:12:51.234Z,60.20
2022-11-01T23:15:30.221Z,59.50
2022-11-01T23:18:15.934Z,58.00
2022-11-01T23:20:43.466Z,58.00
2022-11-01T23:23:20.583Z,59.80
2022-11-01T23:25:47.300Z,60.70
2022-11-01T23:28:13.838Z,55.60
2022-11-01T23:30:42.919Z,55.50
2022-11-01T23:33:17.468Z,57.90
2022-11-01T23:35:51.930Z,56.40
2022-11-01T23:38:26.313Z,58.00
2022-11-01T23:40:54.214Z,58.80
2022-11-01T23:43:32.206Z,53.40
2022-11-01T23:45:58.740Z,57.00
2022-11-01T23:48:25.218Z,53.10
2022-11-01T23:50:53.347Z,46.90
2022-11-01T23:53:25.932Z,52.00
2022-11-01T23:55:54.427Z,53.60
2022-11-01T23:58:26.515Z,57.60
